createdAt,value
2023-02-14T00:03:36.680Z,5.57177
2023-02-14T00:08:37.609Z,5.617
2023-02-14T00:13:38.487Z,5.70583
2023-02-14T00:18:39.388Z,5.69388
2023-02-14T00:23:40.374Z,5.65253
2023-02-14T00:28:41.341Z,5.68354
2023-02-14T00:33:42.591Z,5.69388
2023-02-14T00:38:43.558Z,5.70744
2023-02-14T00:43:45.477Z,5.68419
2023-02-14T00:48:46.414Z,5.67482
2023-02-14T00:53:47.353Z,5.58631
2023-02-14T00:58:48.272Z,5.56887
2023-02-14T01:03:49.424Z,5.57597
2023-02-14T01:08:50.381Z,5.5314
2023-02-14T01:13:51.348Z,5.4852
2023-02-14T01:18:52.357Z,5.52655
2023-02-14T01:23:53.353Z,5.55433
2023-02-14T01:28:54.266Z,5.57823
2023-02-14T01:33:55.209Z,5.43966
2023-02-14T01:38:56.149Z,5.48779
2023-02-14T01:43:57.081Z,5.55562
2023-02-14T01:48:58.163Z,5.53075
2023-02-14T01:53:59.212Z,5.49651
2023-02-14T01:59:00.217Z,5.50846
2023-02-14T02:04:01.217Z,5.51201
2023-02-14T02:09:02.373Z,5.50426
2023-02-14T02:14:03.289Z,5.49683
2023-02-14T02:19:04.213Z,5.49522
2023-02-14T02:24:05.140Z,5.49166
2023-02-14T02:29:06.074Z,5.49619
2023-02-14T02:34:07.073Z,5.50523
2023-02-14T02:39:08.082Z,5.37731
2023-02-14T02:44:09.013Z,5.22388
2023-02-14T02:49:09.948Z,5.32208
2023-02-14T02:54:10.959Z,5.37634
2023-02-14T02:59:11.893Z,5.36472
2023-02-14T03:04:12.849Z,5.35147
2023-02-14T03:09:13.783Z,5.32143
2023-02-14T03:14:14.698Z,5.30593
2023-02-14T03:19:15.651Z,5.31368
2023-02-14T03:24:16.595Z,5.1218
2023-02-14T03:29:17.531Z,5.14861
2023-02-14T03:34:18.473Z,5.20837
2023-02-14T03:39:19.511Z,5.16121
2023-02-14T03:44:20.424Z,5.11534
2023-02-14T03:49:21.826Z,5.06657
2023-02-14T03:54:22.787Z,5.08885
2023-02-14T03:59:23.723Z,5.01391
2023-02-14T04:04:24.890Z,5.00293
2023-02-14T04:09:25.937Z,5.08336
2023-02-14T04:14:26.847Z,5.07367
2023-02-14T04:19:27.773Z,5.1386
2023-02-14T04:24:28.705Z,5.01294
2023-02-14T04:29:29.623Z,5.08142
2023-02-14T04:34:30.506Z,5.14086
2023-02-14T04:39:31.679Z,5.1667
2023-02-14T04:44:32.848Z,5.20094
2023-02-14T04:49:33.773Z,5.19125
2023-02-14T04:54:34.681Z,5.18512
2023-02-14T04:59:35.638Z,5.18931
2023-02-14T05:04:36.548Z,5.14441
2023-02-14T05:09:37.744Z,5.08724
2023-02-14T05:14:38.678Z,4.81784
2023-02-14T05:19:39.591Z,5.00648
2023-02-14T05:24:40.486Z,5.12051
2023-02-14T05:29:41.508Z,5.19416
2023-02-14T05:34:42.423Z,5.22646
2023-02-14T05:39:43.329Z,5.12633
2023-02-14T05:44:44.225Z,5.10888
2023-02-14T05:49:45.154Z,5.13925
2023-02-14T05:54:46.032Z,5.18092
2023-02-14T05:59:46.938Z,5.12536
2023-02-14T06:04:47.927Z,5.14086
2023-02-14T06:09:48.898Z,5.17962
2023-02-14T06:14:49.795Z,5.17962
2023-02-14T06:19:50.717Z,5.15184
2023-02-14T06:24:51.650Z,5.10145
2023-02-14T06:29:52.740Z,5.09402
2023-02-14T06:34:53.648Z,5.1092
2023-02-14T06:39:54.560Z,5.11244
2023-02-14T06:44:55.479Z,5.04945
2023-02-14T06:49:56.500Z,5.11793
2023-02-14T06:54:57.410Z,5.15346
2023-02-14T06:59:58.321Z,5.17349
2023-02-14T07:04:59.231Z,5.21871
2023-02-14T07:10:00.248Z,5.19804
2023-02-14T07:15:01.180Z,5.2326
2023-02-14T07:20:02.132Z,5.22711
2023-02-14T07:25:03.033Z,5.1625
2023-02-14T07:30:04.088Z,5.21968
2023-02-14T07:35:05.126Z,5.31594
2023-02-14T07:40:08.773Z,5.47648
2023-02-14T07:45:21.550Z,5.54561
2023-02-14T07:50:23.363Z,5.57985
2023-02-14T07:55:24.288Z,5.60181
2023-02-14T08:00:25.260Z,5.71067
2023-02-14T08:05:26.280Z,5.84731
2023-02-14T08:10:27.387Z,5.73232
2023-02-14T08:15:28.324Z,5.69678
2023-02-14T08:20:29.245Z,5.66803
2023-02-14T08:25:30.183Z,5.8121
2023-02-14T08:30:31.530Z,5.83762
2023-02-14T08:35:32.913Z,5.69323
2023-02-14T08:40:33.895Z,5.71713
2023-02-14T08:45:34.824Z,5.79111
2023-02-14T08:50:35.792Z,5.9074
2023-02-14T08:55:36.703Z,6.08635
2023-02-14T09:00:37.686Z,6.20749
2023-02-14T09:05:38.637Z,6.24076
2023-02-14T09:10:39.638Z,6.3522
2023-02-14T09:15:40.588Z,6.40001
2023-02-14T09:20:41.569Z,6.536
2023-02-14T09:25:42.520Z,6.64648
2023-02-14T09:30:43.461Z,6.65585
2023-02-14T09:35:44.348Z,6.77504
2023-02-14T09:40:45.284Z,6.73854
2023-02-14T09:45:46.231Z,6.80024
2023-02-14T09:50:47.164Z,6.87228
2023-02-14T09:55:48.102Z,6.84902
2023-02-14T10:00:49.132Z,6.86969
2023-02-14T10:05:50.068Z,6.99244
2023-02-14T10:10:51.407Z,7.02733
2023-02-14T10:15:52.298Z,6.98049
2023-02-14T10:20:53.179Z,6.92396
2023-02-14T10:25:54.058Z,6.99955
2023-02-14T10:30:55.085Z,7.2121
2023-02-14T10:35:56.113Z,7.26831
2023-02-14T10:40:57.188Z,7.38945
2023-02-14T10:45:58.267Z,7.36909
2023-02-14T10:50:59.631Z,7.33324
2023-02-14T10:56:00.697Z,7.31579
2023-02-14T11:01:02.108Z,7.36909
2023-02-14T11:06:03.211Z,7.52932
2023-02-14T11:11:04.126Z,7.5852
2023-02-14T11:16:05.060Z,7.58423
2023-02-14T11:21:06.013Z,7.69019
2023-02-14T11:26:06.933Z,7.76771
2023-02-14T11:31:07.910Z,7.75802
2023-02-14T11:36:08.915Z,7.84233
2023-02-14T11:41:09.866Z,7.68922
2023-02-14T11:46:10.855Z,7.72669
2023-02-14T11:51:12.067Z,7.77482
2023-02-14T11:56:12.999Z,7.66079
2023-02-14T12:01:13.927Z,7.56905
2023-02-14T12:06:14.975Z,7.48086
2023-02-14T12:11:15.927Z,7.69923
2023-02-14T12:16:16.927Z,7.69923
2023-02-14T12:21:17.858Z,7.69794
2023-02-14T12:26:18.835Z,7.77805
2023-02-14T12:31:19.819Z,7.86172
2023-02-14T12:36:20.819Z,7.94926
2023-02-14T12:41:21.758Z,7.90145
2023-02-14T12:46:22.886Z,7.80616
2023-02-14T12:51:23.844Z,7.63592
2023-02-14T12:56:24.766Z,7.68663
2023-02-14T13:01:29.187Z,7.6062
2023-02-14T13:06:37.774Z,7.67242
2023-02-14T13:11:38.754Z,7.76836
2023-02-14T13:16:39.695Z,7.76642
2023-02-14T13:21:40.711Z,7.71345
2023-02-14T13:26:41.635Z,7.82457
2023-02-14T13:31:42.706Z,7.79291
2023-02-14T13:36:43.686Z,7.67759
2023-02-14T13:41:44.617Z,7.6259
2023-02-14T13:46:45.603Z,7.59489
2023-02-14T13:51:46.573Z,7.56873
2023-02-14T13:56:47.641Z,7.48022
2023-02-14T14:01:48.574Z,7.46471
2023-02-14T14:06:49.566Z,7.26153
2023-02-14T14:11:50.531Z,7.33873
2023-02-14T14:16:51.463Z,7.29383
2023-02-14T14:21:52.396Z,7.22825
2023-02-14T14:26:53.366Z,7.31127
2023-02-14T14:31:54.382Z,7.30094
2023-02-14T14:36:55.400Z,7.09
2023-02-14T14:41:56.301Z,6.88875
2023-02-14T14:46:57.217Z,6.80121
2023-02-14T14:51:58.157Z,6.74048
2023-02-14T14:56:59.085Z,6.59964
2023-02-14T15:02:00.039Z,6.49046
2023-02-14T15:07:00.940Z,6.54925
2023-02-14T15:12:01.845Z,6.61547
2023-02-14T15:17:02.771Z,6.69784
2023-02-14T15:22:03.701Z,6.75631
2023-02-14T15:27:04.704Z,6.71399
2023-02-14T15:32:05.795Z,6.58317
2023-02-14T15:37:07.184Z,6.34057
2023-02-14T15:42:08.179Z,6.32378
2023-02-14T15:47:09.155Z,6.3887
2023-02-14T15:52:10.078Z,6.4911
2023-02-14T15:57:11.003Z,6.4756
2023-02-14T16:02:11.948Z,6.28275
2023-02-14T16:07:12.940Z,6.19683
2023-02-14T16:12:13.876Z,6.12156
2023-02-14T16:17:14.907Z,6.15451
2023-02-14T16:22:15.899Z,6.06794
2023-02-14T16:27:16.820Z,5.90933
2023-02-14T16:32:17.970Z,5.91741
2023-02-14T16:37:18.981Z,5.92742
2023-02-14T16:42:19.944Z,5.97135
2023-02-14T16:47:20.941Z,5.87832
2023-02-14T16:52:23.443Z,5.88834
2023-02-14T16:57:25.896Z,5.86669
2023-02-14T17:02:28.850Z,5.83504
2023-02-14T17:07:29.955Z,5.75299
2023-02-14T17:12:30.883Z,5.81307
2023-02-14T17:17:32.095Z,5.84408
2023-02-14T17:22:33.303Z,5.87768
2023-02-14T17:27:34.506Z,5.77786
2023-02-14T17:32:35.514Z,5.83375
2023-02-14T17:37:36.481Z,5.70163
2023-02-14T17:42:37.361Z,5.77689
2023-02-14T17:47:38.293Z,5.72747
2023-02-14T17:52:39.532Z,5.62507
2023-02-14T17:57:40.543Z,5.43966
2023-02-14T18:02:41.784Z,5.4697
2023-02-14T18:07:42.729Z,5.5301
2023-02-14T18:12:43.675Z,5.52267
2023-02-14T18:17:44.586Z,5.52332
2023-02-14T18:22:45.528Z,5.49909
2023-02-14T18:27:46.464Z,5.42286
2023-02-14T18:32:47.369Z,5.31852
2023-02-14T18:37:48.581Z,5.30948
2023-02-14T18:42:49.839Z,5.11534
2023-02-14T18:47:50.763Z,5.06592
2023-02-14T18:52:51.698Z,5.09015
2023-02-14T18:57:52.618Z,5.06657
2023-02-14T19:02:53.528Z,5.07367
2023-02-14T19:07:54.478Z,5.01456
2023-02-14T19:12:55.458Z,4.89892
2023-02-14T19:17:56.399Z,4.86048
2023-02-14T19:22:57.327Z,4.97289
2023-02-14T19:27:58.234Z,4.9842
2023-02-14T19:32:59.169Z,4.91765
2023-02-14T19:38:00.126Z,4.91055
2023-02-14T19:43:01.076Z,4.92185
2023-02-14T19:48:02.124Z,5.03749
2023-02-14T19:53:03.333Z,5.00551
2023-02-14T19:58:04.290Z,4.89472
2023-02-14T20:03:05.222Z,4.92347
2023-02-14T20:08:06.135Z,4.88955
2023-02-14T20:13:07.048Z,4.87631
2023-02-14T20:18:07.925Z,4.86468
2023-02-14T20:23:08.860Z,4.81461
2023-02-14T20:28:09.796Z,4.77552
2023-02-14T20:33:10.874Z,4.74096
2023-02-14T20:38:11.861Z,4.84077
2023-02-14T20:43:12.793Z,4.91798
2023-02-14T20:48:13.784Z,4.8973
2023-02-14T20:53:14.718Z,4.9267
2023-02-14T20:58:15.657Z,4.96158
2023-02-14T21:03:16.615Z,4.87695
2023-02-14T21:08:17.568Z,4.9015
2023-02-14T21:13:18.513Z,4.99582
2023-02-14T21:18:19.482Z,4.99292
2023-02-14T21:23:20.392Z,4.82753
2023-02-14T21:28:21.259Z,4.74225
2023-02-14T21:33:22.157Z,4.66957
2023-02-14T21:38:23.108Z,4.59722
2023-02-14T21:43:24.012Z,4.56976
2023-02-14T21:48:24.917Z,4.48997
2023-02-14T21:53:25.833Z,4.41051
2023-02-14T21:58:26.722Z,4.39468
2023-02-14T22:03:27.603Z,4.28098
2023-02-14T22:08:28.484Z,4.15856
2023-02-14T22:13:29.426Z,4.19506
2023-02-14T22:18:30.396Z,4.18795
2023-02-14T22:23:31.328Z,4.3178
2023-02-14T22:28:32.466Z,4.36755
2023-02-14T22:33:33.668Z,4.44281
2023-02-14T22:38:34.755Z,4.35527
2023-02-14T22:43:35.686Z,4.23737
2023-02-14T22:48:36.608Z,4.20152
2023-02-14T22:53:37.959Z,4.25191
2023-02-14T22:58:38.888Z,4.23899
2023-02-14T23:03:39.860Z,4.15339
2023-02-14T23:08:40.801Z,3.90014
2023-02-14T23:13:41.722Z,3.7635
2023-02-14T23:18:42.742Z,3.602
2023-02-14T23:23:43.672Z,3.45082
2023-02-14T23:28:44.590Z,3.40883
2023-02-14T23:33:45.633Z,3.33454
2023-02-14T23:38:46.588Z,3.35134
2023-02-14T23:43:47.502Z,3.27704
2023-02-14T23:48:48.424Z,3.15107
2023-02-14T23:53:49.370Z,3.04221
2023-02-14T23:58:50.283Z,2.92625
